Time;durP1;ratioP1;P1;durP2;ratioP2;P2;SDS_P1;SDS_P2;PMS_P1;PMS_P2;Temp;Humidity;BMP_temperature;BMP_pressure;BME280_temperature;BME280_humidity;BME280_pressure;Samples;Min_cycle;Max_cycle;Signal;HPM_P1;HPM_P2
2023/06/18 00:03:19;;;;;;;;;;;;;;;22.28;36.76;95546.91;10305597;28;1926;-63
2023/06/18 00:08:20;;;;;;;;;;;;;;;22.25;36.63;95558.06;10304838;28;2015;-63
2023/06/18 00:13:20;;;;;;;;;;;;;;;22.26;36.62;95544.56;10294993;28;1950;-63
2023/06/18 00:18:20;;;;;;;;;;;;;;;22.26;36.74;95549.81;10301103;28;1992;-63
2023/06/18 00:23:21;;;;;;;;;;;;;;;22.23;37.03;95553.06;10293635;28;1933;-63
2023/06/18 00:28:21;;;;;;;;;;;;;;;22.26;37.01;95555.09;10301162;28;1957;-63
2023/06/18 00:33:22;;;;;;;;;;;;;;;22.27;37.17;95545.34;10294060;28;1941;-63
2023/06/18 00:38:23;;;;;;;;;;;;;;;22.26;36.83;95543.75;10301162;28;1975;-63
2023/06/18 00:43:23;;;;;;;;;;;;;;;22.21;37.26;95541.22;10302694;28;4512;-63
2023/06/18 00:48:25;;;;;;;;;;;;;;;22.17;36.97;95551.56;10299984;28;2324;-63
2023/06/18 00:53:25;;;;;;;;;;;;;;;22.13;37.18;95542.66;10298591;28;1989;-63
2023/06/18 00:58:27;;;;;;;;;;;;;;;22.12;37.04;95537.66;10298505;28;1923;-63
2023/06/18 01:03:27;;;;;;;;;;;;;;;22.10;37.01;95534.50;10316856;28;1997;-63
2023/06/18 01:08:28;;;;;;;;;;;;;;;22.09;37.26;95527.69;10326021;28;1976;-63
2023/06/18 01:13:30;;;;;;;;;;;;;;;22.05;37.41;95524.81;10295913;28;2185;-63
2023/06/18 01:18:34;;;;;;;;;;;;;;;22.04;37.29;95528.53;10300397;28;1989;-63
2023/06/18 01:23:50;;;;;;;;;;;;;;;22.01;37.25;95528.34;10297514;28;1985;-63
2023/06/18 01:28:51;;;;;;;;;;;;;;;21.98;37.03;95527.06;10281477;28;1970;-63
2023/06/18 01:33:53;;;;;;;;;;;;;;;21.94;36.95;95526.06;10293314;28;1977;-63
2023/06/18 01:38:53;;;;;;;;;;;;;;;21.87;36.92;95523.00;10303334;28;1886;-63
2023/06/18 01:43:57;;;;;;;;;;;;;;;21.85;37.03;95528.56;10316880;28;4460;-63
2023/06/18 01:48:58;;;;;;;;;;;;;;;21.77;36.84;95526.53;10294546;28;2021;-63
2023/06/18 01:53:59;;;;;;;;;;;;;;;21.75;37.05;95528.69;10305993;28;2017;-63
2023/06/18 01:58:59;;;;;;;;;;;;;;;21.66;37.02;95522.47;10287841;28;1986;-63
2023/06/18 02:04:00;;;;;;;;;;;;;;;21.64;36.82;95523.81;10287746;28;2023;-63
2023/06/18 02:09:00;;;;;;;;;;;;;;;21.61;37.01;95527.03;10307822;28;2132;-63
2023/06/18 02:14:00;;;;;;;;;;;;;;;21.56;37.20;95535.81;10306901;28;1934;-63
2023/06/18 02:19:00;;;;;;;;;;;;;;;21.54;36.74;95530.03;10305536;28;1903;-63
2023/06/18 02:24:01;;;;;;;;;;;;;;;21.48;36.91;95530.38;10303943;28;2020;-63
2023/06/18 02:29:01;;;;;;;;;;;;;;;21.46;36.69;95525.38;10291388;28;1956;-63
2023/06/18 02:34:01;;;;;;;;;;;;;;;21.51;36.75;95529.81;10302724;28;1927;-63
2023/06/18 02:39:02;;;;;;;;;;;;;;;21.50;36.72;95528.22;10302688;28;1932;-63
2023/06/18 02:44:04;;;;;;;;;;;;;;;21.45;36.66;95513.25;10305283;28;4460;-63
2023/06/18 02:49:04;;;;;;;;;;;;;;;21.44;36.60;95518.81;10306904;28;1962;-63
2023/06/18 02:54:04;;;;;;;;;;;;;;;21.41;36.93;95528.09;10312146;28;1938;-63
2023/06/18 02:59:05;;;;;;;;;;;;;;;21.39;36.60;95518.91;10304414;28;1952;-63
2023/06/18 03:04:05;;;;;;;;;;;;;;;21.39;36.77;95516.28;10305461;28;2009;-63
2023/06/18 03:09:05;;;;;;;;;;;;;;;21.43;36.80;95523.31;10305266;28;1954;-63
2023/06/18 03:14:06;;;;;;;;;;;;;;;21.39;36.60;95519.66;10305587;28;2014;-63
2023/06/18 03:19:06;;;;;;;;;;;;;;;21.30;36.93;95521.38;10304019;28;1955;-63
2023/06/18 03:24:06;;;;;;;;;;;;;;;21.21;36.85;95524.91;10297548;28;1870;-63
2023/06/18 03:29:07;;;;;;;;;;;;;;;21.17;36.62;95523.91;10301266;28;2235;-63
2023/06/18 03:34:08;;;;;;;;;;;;;;;21.18;36.74;95514.94;10301876;28;1972;-63
2023/06/18 03:39:09;;;;;;;;;;;;;;;21.17;36.84;95506.25;10308051;28;2341;-63
2023/06/18 03:44:09;;;;;;;;;;;;;;;21.12;36.63;95505.53;10307534;28;4384;-63
2023/06/18 03:49:09;;;;;;;;;;;;;;;21.05;36.54;95516.41;10303778;28;1993;-63
2023/06/18 03:54:10;;;;;;;;;;;;;;;21.01;36.65;95523.28;10311340;28;1925;-63
2023/06/18 03:59:10;;;;;;;;;;;;;;;20.98;36.55;95516.72;10305078;28;1936;-63
2023/06/18 04:04:10;;;;;;;;;;;;;;;20.97;36.66;95514.38;10301613;28;1863;-63
2023/06/18 04:09:11;;;;;;;;;;;;;;;20.92;36.50;95519.69;10299601;28;1942;-63
2023/06/18 04:14:12;;;;;;;;;;;;;;;20.87;36.92;95520.56;10304473;28;1942;-64
2023/06/18 04:19:12;;;;;;;;;;;;;;;20.86;36.80;95524.25;10306564;28;1909;-63
2023/06/18 04:24:12;;;;;;;;;;;;;;;20.87;36.70;95525.84;10304997;28;1946;-63
2023/06/18 04:29:13;;;;;;;;;;;;;;;20.91;36.99;95526.84;10302062;28;1978;-63
2023/06/18 04:34:13;;;;;;;;;;;;;;;20.99;36.54;95526.22;10309095;28;1958;-63
2023/06/18 04:39:13;;;;;;;;;;;;;;;21.08;36.79;95533.53;10300527;28;2180;-63
2023/06/18 04:44:13;;;;;;;;;;;;;;;21.18;36.78;95539.47;10303378;28;4479;-63
2023/06/18 04:49:14;;;;;;;;;;;;;;;21.24;37.10;95527.00;10297144;28;2078;-63
2023/06/18 04:54:14;;;;;;;;;;;;;;;21.30;36.74;95531.13;10303148;28;1978;-63
2023/06/18 04:59:14;;;;;;;;;;;;;;;21.35;36.75;95544.28;10302061;28;1933;-63
2023/06/18 05:04:15;;;;;;;;;;;;;;;21.38;36.89;95543.69;10300703;28;1903;-63
2023/06/18 05:09:15;;;;;;;;;;;;;;;21.41;36.83;95543.13;10295656;28;2001;-63
2023/06/18 05:14:15;;;;;;;;;;;;;;;21.44;36.58;95545.97;10297925;28;2019;-63
2023/06/18 05:19:15;;;;;;;;;;;;;;;21.41;36.31;95546.53;10292155;28;2012;-63
2023/06/18 05:24:16;;;;;;;;;;;;;;;21.44;36.67;95551.25;10300430;28;2437;-63
2023/06/18 05:29:16;;;;;;;;;;;;;;;21.47;36.54;95549.91;10297937;28;2373;-63
2023/06/18 05:34:16;;;;;;;;;;;;;;;21.51;36.66;95556.19;10300130;28;1900;-63
2023/06/18 05:39:17;;;;;;;;;;;;;;;21.51;36.98;95551.72;10301247;28;1962;-63
2023/06/18 05:44:17;;;;;;;;;;;;;;;21.49;37.01;95559.13;10305590;28;4487;-63
2023/06/18 05:49:17;;;;;;;;;;;;;;;21.55;36.89;95565.09;10301672;28;1993;-63
2023/06/18 05:54:17;;;;;;;;;;;;;;;21.56;37.09;95559.53;10305625;28;1978;-63
2023/06/18 05:59:18;;;;;;;;;;;;;;;21.56;37.03;95562.19;10309768;28;1863;-63
2023/06/18 06:04:20;;;;;;;;;;;;;;;21.52;36.89;95576.22;10308535;28;1897;-63
2023/06/18 06:09:20;;;;;;;;;;;;;;;21.51;37.13;95578.09;10310917;28;1956;-63
2023/06/18 06:14:20;;;;;;;;;;;;;;;21.51;36.95;95580.72;10309853;28;1893;-63
2023/06/18 06:19:20;;;;;;;;;;;;;;;21.54;37.29;95572.22;10309867;28;2026;-63
2023/06/18 06:24:21;;;;;;;;;;;;;;;21.56;36.79;95567.44;10308042;28;2049;-63
2023/06/18 06:29:21;;;;;;;;;;;;;;;21.59;37.08;95574.81;10300776;28;2219;-62
2023/06/18 06:34:21;;;;;;;;;;;;;;;21.60;37.02;95575.56;10302756;28;2009;-63
2023/06/18 06:39:21;;;;;;;;;;;;;;;21.62;37.01;95568.16;10301650;28;2006;-63
2023/06/18 06:44:22;;;;;;;;;;;;;;;21.61;36.56;95569.25;10308864;28;4484;-63
2023/06/18 06:49:22;;;;;;;;;;;;;;;21.60;36.62;95572.94;10310215;28;1990;-63
2023/06/18 06:54:22;;;;;;;;;;;;;;;21.67;36.61;95573.38;10310516;28;2207;-63
2023/06/18 06:59:23;;;;;;;;;;;;;;;21.72;36.57;95575.97;10300050;28;1975;-65
2023/06/18 07:04:23;;;;;;;;;;;;;;;21.76;36.48;95572.44;10294164;28;1945;-62
2023/06/18 07:09:23;;;;;;;;;;;;;;;21.83;36.55;95572.13;10305612;28;2061;-61
2023/06/18 07:14:24;;;;;;;;;;;;;;;21.88;36.72;95572.84;10300246;28;2061;-63
2023/06/18 07:19:24;;;;;;;;;;;;;;;21.93;36.62;95574.63;10297172;28;2060;-63
2023/06/18 07:24:24;;;;;;;;;;;;;;;21.97;36.03;95575.63;10293994;28;2526;-62
2023/06/18 07:29:25;;;;;;;;;;;;;;;21.98;35.88;95579.03;10296040;28;1912;-61
2023/06/18 07:34:25;;;;;;;;;;;;;;;22.02;35.99;95570.28;10305968;28;1985;-60
2023/06/18 07:39:26;;;;;;;;;;;;;;;22.05;36.08;95569.69;10304118;28;2138;-61
2023/06/18 07:44:27;;;;;;;;;;;;;;;22.09;35.67;95570.69;10304502;28;4556;-60
2023/06/18 07:49:27;;;;;;;;;;;;;;;22.10;35.78;95559.06;10306404;28;1956;-58
2023/06/18 07:54:28;;;;;;;;;;;;;;;22.18;35.19;95563.69;10305645;28;1961;-62
2023/06/18 07:59:28;;;;;;;;;;;;;;;22.19;35.92;95560.00;10303471;28;2108;-60
2023/06/18 08:04:28;;;;;;;;;;;;;;;22.25;35.67;95556.19;10300159;28;1910;-60
2023/06/18 08:09:28;;;;;;;;;;;;;;;22.30;34.70;95556.09;10297313;28;2019;-60
2023/06/18 08:14:29;;;;;;;;;;;;;;;22.33;34.56;95554.75;10294542;28;1950;-61
2023/06/18 08:19:29;;;;;;;;;;;;;;;22.31;35.32;95557.69;10306608;28;2336;-61
2023/06/18 08:24:29;;;;;;;;;;;;;;;22.35;34.82;95552.59;10304429;28;1994;-61
2023/06/18 08:29:30;;;;;;;;;;;;;;;22.37;33.36;95555.72;10298831;28;1981;-61
2023/06/18 08:34:33;;;;;;;;;;;;;;;22.36;34.06;95554.19;10297229;28;1961;-61
2023/06/18 08:39:33;;;;;;;;;;;;;;;22.37;34.08;95556.53;10301089;28;1878;-61
2023/06/18 08:44:34;;;;;;;;;;;;;;;22.37;33.47;95561.81;10296416;28;4527;-61
2023/06/18 08:49:34;;;;;;;;;;;;;;;22.38;33.05;95560.72;10294982;28;2056;-61
2023/06/18 08:54:36;;;;;;;;;;;;;;;22.41;32.72;95556.72;10298356;28;1909;-61
2023/06/18 08:59:36;;;;;;;;;;;;;;;22.45;33.03;95553.22;10303373;28;1926;-60
2023/06/18 09:04:36;;;;;;;;;;;;;;;22.45;33.34;95553.22;10294122;28;2028;-60
2023/06/18 09:09:36;;;;;;;;;;;;;;;22.49;33.42;95554.22;10304288;28;1905;-60
2023/06/18 09:14:37;;;;;;;;;;;;;;;22.50;33.37;95553.13;10307660;28;2531;-61
2023/06/18 09:19:37;;;;;;;;;;;;;;;22.52;33.23;95547.56;10299559;28;2069;-62
2023/06/18 09:24:37;;;;;;;;;;;;;;;22.56;33.33;95551.97;10283019;28;1999;-62
2023/06/18 09:29:38;;;;;;;;;;;;;;;22.59;33.70;95555.91;10294757;28;1996;-61
2023/06/18 09:34:38;;;;;;;;;;;;;;;22.61;33.33;95545.84;10296825;28;1986;-61
2023/06/18 09:39:40;;;;;;;;;;;;;;;22.64;33.74;95546.06;10297784;28;2210;-60
2023/06/18 09:44:44;;;;;;;;;;;;;;;22.67;33.62;95535.97;10294291;28;4504;-60
2023/06/18 09:49:45;;;;;;;;;;;;;;;22.71;33.33;95534.31;10304664;28;1978;-60
2023/06/18 09:54:46;;;;;;;;;;;;;;;22.74;33.35;95545.09;10299126;28;2009;-61
2023/06/18 09:59:47;;;;;;;;;;;;;;;22.75;33.49;95546.63;10298665;28;2006;-59
2023/06/18 10:04:47;;;;;;;;;;;;;;;22.76;33.51;95547.44;10297679;28;1974;-61
2023/06/18 10:09:47;;;;;;;;;;;;;;;22.78;33.65;95540.00;10299575;28;1890;-61
2023/06/18 10:14:48;;;;;;;;;;;;;;;22.82;33.42;95533.84;10286715;28;2056;-63
2023/06/18 10:19:51;;;;;;;;;;;;;;;22.81;33.67;95536.78;10287940;28;1967;-64
2023/06/18 10:24:51;;;;;;;;;;;;;;;22.80;34.14;95533.34;10298977;28;1935;-64
2023/06/18 10:29:51;;;;;;;;;;;;;;;22.80;34.35;95528.06;10304043;28;1957;-63
2023/06/18 10:34:52;;;;;;;;;;;;;;;22.80;34.71;95524.63;10306484;28;1923;-64
2023/06/18 10:39:52;;;;;;;;;;;;;;;22.82;34.76;95522.47;10307356;28;1886;-63
2023/06/18 10:45:09;;;;;;;;;;;;;;;22.81;34.94;95518.28;10297410;28;4566;-65
2023/06/18 10:50:13;;;;;;;;;;;;;;;22.80;34.75;95504.28;10304246;28;1997;-63
2023/06/18 10:55:15;;;;;;;;;;;;;;;22.83;34.80;95510.84;10311421;28;1874;-63
2023/06/18 11:00:30;;;;;;;;;;;;;;;22.84;35.08;95502.63;10304580;28;1938;-63
2023/06/18 11:05:34;;;;;;;;;;;;;;;22.85;35.15;95503.41;10303959;28;2005;-64
2023/06/18 11:10:38;;;;;;;;;;;;;;;22.88;35.37;95494.88;10300153;28;2262;-64
2023/06/18 11:16:14;;;;;;;;;;;;;;;22.91;35.71;95481.06;10302930;28;1989;-70
2023/06/18 11:21:17;;;;;;;;;;;;;;;22.93;36.36;95489.50;10257666;28;1946;-67
2023/06/18 11:26:18;;;;;;;;;;;;;;;22.94;36.43;95483.13;10305407;28;1929;-67
2023/06/18 11:31:19;;;;;;;;;;;;;;;22.97;36.40;95482.53;10301990;28;1945;-65
2023/06/18 11:36:19;;;;;;;;;;;;;;;22.96;36.21;95480.97;10307968;28;1922;-64
2023/06/18 11:41:22;;;;;;;;;;;;;;;22.97;36.14;95466.69;10284482;28;4588;-62
2023/06/18 11:46:30;;;;;;;;;;;;;;;22.98;36.33;95460.34;10304915;28;1934;-63
2023/06/18 11:51:30;;;;;;;;;;;;;;;22.98;36.59;95452.41;10293767;28;1957;-63
2023/06/18 11:56:31;;;;;;;;;;;;;;;22.97;36.61;95448.97;10299135;28;1971;-63
2023/06/18 12:01:31;;;;;;;;;;;;;;;22.98;36.43;95444.47;10294886;28;2202;-63
2023/06/18 12:06:32;;;;;;;;;;;;;;;23.00;36.63;95444.97;10304578;28;2285;-63
2023/06/18 12:11:38;;;;;;;;;;;;;;;23.00;36.36;95437.03;10301374;28;1950;-63
2023/06/18 12:16:41;;;;;;;;;;;;;;;22.99;36.45;95438.88;10292887;28;1977;-63
2023/06/18 12:21:42;;;;;;;;;;;;;;;22.99;36.48;95435.44;10277857;28;2006;-63
2023/06/18 12:26:42;;;;;;;;;;;;;;;23.00;36.79;95432.50;10286994;28;1924;-63
2023/06/18 12:31:43;;;;;;;;;;;;;;;23.00;36.84;95416.66;10300135;28;2049;-63
2023/06/18 12:36:43;;;;;;;;;;;;;;;23.00;36.84;95423.81;10305808;28;1966;-63
2023/06/18 12:41:44;;;;;;;;;;;;;;;23.03;36.66;95417.91;10293268;28;4635;-63
2023/06/18 12:46:44;;;;;;;;;;;;;;;23.03;36.63;95410.78;10308410;28;1996;-63
2023/06/18 12:51:44;;;;;;;;;;;;;;;23.05;36.79;95405.19;10302564;28;2014;-63
2023/06/18 12:56:46;;;;;;;;;;;;;;;23.04;36.65;95395.69;10299611;28;1980;-63
2023/06/18 13:01:46;;;;;;;;;;;;;;;23.06;36.65;95396.19;10298210;28;2924;-63
2023/06/18 13:06:47;;;;;;;;;;;;;;;23.03;36.69;95394.13;10298420;28;2060;-63
2023/06/18 13:11:47;;;;;;;;;;;;;;;23.06;36.61;95398.84;10298711;28;2054;-63
2023/06/18 13:16:48;;;;;;;;;;;;;;;23.07;36.94;95387.16;10303476;28;1901;-65
2023/06/18 13:21:48;;;;;;;;;;;;;;;23.05;37.02;95376.91;10298829;28;1993;-63
2023/06/18 13:26:48;;;;;;;;;;;;;;;23.06;37.08;95375.81;10290618;28;2041;-63
2023/06/18 13:31:48;;;;;;;;;;;;;;;23.06;36.89;95367.09;10290519;28;1920;-63
2023/06/18 13:36:49;;;;;;;;;;;;;;;23.07;37.02;95366.81;10295142;28;1948;-63
2023/06/18 13:41:49;;;;;;;;;;;;;;;23.09;37.04;95372.56;10296334;28;2005;-63
2023/06/18 13:46:50;;;;;;;;;;;;;;;23.10;37.19;95362.78;10298319;28;1910;-63
2023/06/18 13:51:50;;;;;;;;;;;;;;;23.10;37.28;95360.91;10296462;28;1895;-63
2023/06/18 13:56:50;;;;;;;;;;;;;;;23.11;37.25;95359.84;10296939;28;2395;-63
2023/06/18 14:01:51;;;;;;;;;;;;;;;23.12;37.27;95355.34;10292899;28;1985;-63
2023/06/18 14:06:52;;;;;;;;;;;;;;;23.13;37.29;95357.69;10301968;28;1949;-63
2023/06/18 14:11:52;;;;;;;;;;;;;;;23.15;37.21;95352.09;10309681;28;1997;-63
2023/06/18 14:16:52;;;;;;;;;;;;;;;23.15;37.05;95344.16;10305153;28;1972;-63
2023/06/18 14:21:53;;;;;;;;;;;;;;;23.13;37.07;95341.81;10306754;28;1858;-63
2023/06/18 14:26:53;;;;;;;;;;;;;;;23.17;36.80;95347.28;10307316;28;2067;-63
2023/06/18 14:31:53;;;;;;;;;;;;;;;23.18;36.99;95352.28;10306126;28;1902;-63
2023/06/18 14:36:55;;;;;;;;;;;;;;;23.19;36.90;95355.69;10307881;28;1875;-63
2023/06/18 14:41:55;;;;;;;;;;;;;;;23.18;36.36;95348.84;10304470;28;4496;-62
2023/06/18 14:46:55;;;;;;;;;;;;;;;23.18;36.93;95356.78;10305533;28;2094;-63
2023/06/18 14:51:56;;;;;;;;;;;;;;;23.17;36.62;95363.94;10306515;28;2439;-63
2023/06/18 14:56:57;;;;;;;;;;;;;;;23.16;36.88;95357.06;10307546;28;1888;-63
2023/06/18 15:01:57;;;;;;;;;;;;;;;23.18;36.97;95362.06;10303567;28;1895;-63
2023/06/18 15:06:57;;;;;;;;;;;;;;;23.19;36.78;95355.69;10309510;28;1950;-63
2023/06/18 15:11:57;;;;;;;;;;;;;;;23.20;36.74;95362.56;10307817;28;1804;-62
2023/06/18 15:16:58;;;;;;;;;;;;;;;23.20;36.99;95349.34;10302654;28;2141;-63
2023/06/18 15:21:58;;;;;;;;;;;;;;;23.21;37.05;95343.75;10305149;28;1893;-62
2023/06/18 15:26:58;;;;;;;;;;;;;;;23.21;36.88;95353.53;10303992;28;2062;-63
2023/06/18 15:31:59;;;;;;;;;;;;;;;23.21;36.98;95354.31;10299185;28;1935;-63
2023/06/18 15:36:59;;;;;;;;;;;;;;;23.21;36.70;95354.31;10301686;28;1882;-63
2023/06/18 15:42:00;;;;;;;;;;;;;;;23.23;36.66;95346.06;10298910;28;4565;-63
2023/06/18 15:47:00;;;;;;;;;;;;;;;23.22;36.70;95329.44;10301448;28;2118;-63
2023/06/18 15:52:00;;;;;;;;;;;;;;;23.22;36.62;95334.75;10302660;28;2440;-63
2023/06/18 15:57:00;;;;;;;;;;;;;;;23.24;36.79;95329.16;10299106;28;1987;-63
2023/06/18 16:02:01;;;;;;;;;;;;;;;23.26;36.95;95324.34;10303372;28;1908;-63
2023/06/18 16:07:02;;;;;;;;;;;;;;;23.25;36.59;95322.75;10306649;28;1925;-63
2023/06/18 16:12:02;;;;;;;;;;;;;;;23.25;36.81;95326.19;10302627;28;1884;-63
2023/06/18 16:17:03;;;;;;;;;;;;;;;23.25;36.95;95328.03;10300372;28;1897;-63
2023/06/18 16:22:03;;;;;;;;;;;;;;;23.26;36.38;95325.13;10298534;28;1890;-63
2023/06/18 16:27:03;;;;;;;;;;;;;;;23.25;36.52;95323.53;10300159;28;2041;-63
2023/06/18 16:32:10;;;;;;;;;;;;;;;23.27;36.60;95315.31;10301442;28;1994;-64
2023/06/18 16:37:10;;;;;;;;;;;;;;;23.30;36.51;95320.00;10295619;28;1917;-61
2023/06/18 16:42:11;;;;;;;;;;;;;;;23.30;36.91;95320.00;10291882;28;1895;-61
2023/06/18 16:47:11;;;;;;;;;;;;;;;23.29;36.71;95319.22;10297312;28;2231;-62
2023/06/18 16:52:11;;;;;;;;;;;;;;;23.32;36.92;95317.88;10310596;28;1868;-63
2023/06/18 16:57:12;;;;;;;;;;;;;;;23.32;36.96;95328.44;10289555;28;1937;-62
2023/06/18 17:02:12;;;;;;;;;;;;;;;23.32;37.46;95329.25;10302558;28;1910;-62
2023/06/18 17:07:12;;;;;;;;;;;;;;;23.32;37.39;95321.31;10299171;28;1921;-64
2023/06/18 17:12:13;;;;;;;;;;;;;;;23.35;37.65;95327.84;10302530;28;2397;-61
2023/06/18 17:17:13;;;;;;;;;;;;;;;;;;10300988;28;1990;-60
2023/06/18 17:22:13;;;;;;;;;;;;;;;23.34;37.29;95326.28;10299886;28;1870;-62
2023/06/18 17:27:13;;;;;;;;;;;;;;;23.35;37.55;95322.53;10303551;28;1894;-61
2023/06/18 17:32:14;;;;;;;;;;;;;;;23.38;37.15;95320.09;10301897;28;2196;-63
2023/06/18 17:37:14;;;;;;;;;;;;;;;23.40;36.87;95330.38;10296142;28;1967;-62
2023/06/18 17:42:14;;;;;;;;;;;;;;;23.41;37.93;95324.78;10295373;28;2331;-62
2023/06/18 17:47:15;;;;;;;;;;;;;;;23.46;38.83;95331.81;10297059;28;1898;-62
2023/06/18 17:52:15;;;;;;;;;;;;;;;23.48;39.26;95334.16;10297761;28;2073;-63
2023/06/18 17:57:15;;;;;;;;;;;;;;;23.49;39.19;95330.44;10296778;28;1889;-66
2023/06/18 18:02:15;;;;;;;;;;;;;;;23.58;39.16;95336.53;10292528;28;1906;-66
2023/06/18 18:07:16;;;;;;;;;;;;;;;23.61;39.31;95341.25;10298681;28;1965;-66
2023/06/18 18:12:16;;;;;;;;;;;;;;;23.60;39.20;95347.59;10296999;28;1905;-65
2023/06/18 18:17:16;;;;;;;;;;;;;;;23.61;39.41;95341.25;10297650;28;2152;-64
2023/06/18 18:22:18;;;;;;;;;;;;;;;23.61;39.30;95342.03;10297248;28;1887;-64
2023/06/18 18:27:18;;;;;;;;;;;;;;;23.60;39.47;95324.59;10293626;28;2073;-65
2023/06/18 18:32:18;;;;;;;;;;;;;;;23.61;39.51;95323.50;10299712;28;1960;-65
2023/06/18 18:37:19;;;;;;;;;;;;;;;23.61;39.73;95320.06;10300367;28;2286;-66
2023/06/18 18:42:19;;;;;;;;;;;;;;;23.60;39.66;95319.28;10294124;28;4483;-66
2023/06/18 18:47:19;;;;;;;;;;;;;;;23.61;39.56;95322.72;10301551;28;1982;-66
2023/06/18 18:52:20;;;;;;;;;;;;;;;23.61;39.45;95325.38;10303702;28;1907;-66
2023/06/18 18:57:20;;;;;;;;;;;;;;;23.59;39.57;95330.97;10307767;28;1876;-66
2023/06/18 19:02:22;;;;;;;;;;;;;;;23.59;39.32;95328.31;10300046;28;1878;-66
2023/06/18 19:07:22;;;;;;;;;;;;;;;23.59;39.60;95327.53;10301424;28;1954;-66
2023/06/18 19:12:23;;;;;;;;;;;;;;;23.59;39.34;95344.19;10303343;28;1855;-66
2023/06/18 19:17:23;;;;;;;;;;;;;;;23.59;39.33;95343.41;10303686;28;1945;-66
2023/06/18 19:22:29;;;;;;;;;;;;;;;23.58;39.53;95352.41;10297697;28;1895;-66
2023/06/18 19:27:30;;;;;;;;;;;;;;;23.58;39.19;95352.41;10301882;28;2048;-65
2023/06/18 19:32:30;;;;;;;;;;;;;;;23.58;39.46;95357.72;10303227;28;2003;-65
2023/06/18 19:37:30;;;;;;;;;;;;;;;23.58;39.52;95353.22;10295824;28;1977;-65
2023/06/18 19:42:31;;;;;;;;;;;;;;;23.57;39.50;95372.81;10301293;28;4475;-65
2023/06/18 19:47:32;;;;;;;;;;;;;;;23.58;39.84;95387.59;10303404;28;1914;-65
2023/06/18 19:52:33;;;;;;;;;;;;;;;23.60;39.83;95396.03;10283419;28;1924;-65
2023/06/18 19:57:33;;;;;;;;;;;;;;;23.59;39.83;95385.75;10302017;28;1901;-65
2023/06/18 20:02:33;;;;;;;;;;;;;;;23.59;39.82;95394.47;10295690;28;1909;-65
2023/06/18 20:07:34;;;;;;;;;;;;;;;23.60;39.90;95396.03;10298284;28;1911;-66
2023/06/18 20:12:34;;;;;;;;;;;;;;;23.60;40.07;95403.97;10299243;28;1898;-66
2023/06/18 20:17:34;;;;;;;;;;;;;;;23.61;40.00;95400.25;10295976;28;1879;-65
2023/06/18 20:22:34;;;;;;;;;;;;;;;23.62;40.24;95398.38;10296752;28;1999;-65
2023/06/18 20:27:35;;;;;;;;;;;;;;;23.62;40.36;95407.09;10301754;28;1981;-65
2023/06/18 20:32:35;;;;;;;;;;;;;;;23.63;40.37;95407.88;10296812;28;2391;-67
2023/06/18 20:37:35;;;;;;;;;;;;;;;23.63;39.68;95411.31;10300148;28;1911;-67
2023/06/18 20:42:35;;;;;;;;;;;;;;;23.62;38.99;95407.09;10303406;28;4435;-67
2023/06/18 20:47:36;;;;;;;;;;;;;;;23.59;38.35;95407.69;10302317;28;1907;-67
2023/06/18 20:52:36;;;;;;;;;;;;;;;23.57;38.11;95414.38;10300619;28;1835;-67
2023/06/18 20:57:36;;;;;;;;;;;;;;;23.54;37.37;95421.03;10306783;28;1652;-67
2023/06/18 21:02:40;;;;;;;;;;;;;;;23.51;36.77;95413.72;10304120;28;1539;-67
2023/06/18 21:07:41;;;;;;;;;;;;;;;23.49;37.21;95417.72;10302263;28;1964;-67
2023/06/18 21:12:41;;;;;;;;;;;;;;;23.48;37.21;95421.44;10298254;28;1899;-67
2023/06/18 21:17:41;;;;;;;;;;;;;;;23.45;37.08;95418.31;10297605;28;1902;-67
2023/06/18 21:22:41;;;;;;;;;;;;;;;23.43;37.18;95423.13;10297553;28;1902;-67
2023/06/18 21:27:42;;;;;;;;;;;;;;;23.43;36.61;95425.00;10301153;28;2339;-67
2023/06/18 21:32:42;;;;;;;;;;;;;;;23.40;36.41;95425.59;10292249;28;2182;-67
2023/06/18 21:37:45;;;;;;;;;;;;;;;23.37;36.56;95431.47;10305207;28;1969;-67
2023/06/18 21:42:45;;;;;;;;;;;;;;;23.36;36.68;95430.72;10298438;28;4531;-67
2023/06/18 21:47:46;;;;;;;;;;;;;;;;;;10302191;28;1918;-67
2023/06/18 21:52:46;;;;;;;;;;;;;;;23.34;36.46;95434.72;10295412;28;1890;-67
2023/06/18 21:57:46;;;;;;;;;;;;;;;23.32;36.48;95434.25;10298732;28;1927;-66
2023/06/18 22:02:48;;;;;;;;;;;;;;;23.32;36.36;95434.25;10299524;28;1997;-66
2023/06/18 22:07:48;;;;;;;;;;;;;;;23.31;36.70;95430.78;10304031;28;1975;-66
2023/06/18 22:12:48;;;;;;;;;;;;;;;23.31;36.38;95438.72;10302278;28;1927;-67
2023/06/18 22:17:49;;;;;;;;;;;;;;;23.31;36.36;95432.63;10301127;28;1947;-67
2023/06/18 22:22:49;;;;;;;;;;;;;;;23.29;36.47;95429.50;10309387;28;2324;-67
2023/06/18 22:27:49;;;;;;;;;;;;;;;23.28;36.51;95425.31;10309948;28;1926;-66
2023/06/18 22:32:49;;;;;;;;;;;;;;;23.26;36.39;95424.81;10306021;28;1949;-67
2023/06/18 22:37:50;;;;;;;;;;;;;;;23.26;36.58;95422.97;10300001;28;1951;-67
2023/06/18 22:42:54;;;;;;;;;;;;;;;23.24;36.50;95425.13;10305569;28;4492;-66
2023/06/18 22:47:54;;;;;;;;;;;;;;;23.25;36.39;95428.53;10305543;28;2049;-67
2023/06/18 22:52:55;;;;;;;;;;;;;;;23.23;36.31;95412.19;10306423;28;2153;-67
2023/06/18 22:57:55;;;;;;;;;;;;;;;23.20;36.53;95413.59;10305708;28;1920;-67
2023/06/18 23:02:56;;;;;;;;;;;;;;;23.16;36.45;95411.84;10305193;28;1954;-67
2023/06/18 23:07:56;;;;;;;;;;;;;;;23.14;36.17;95414.00;10309695;28;1950;-67
2023/06/18 23:12:56;;;;;;;;;;;;;;;23.12;36.13;95414.25;10305771;28;1921;-66
2023/06/18 23:17:57;;;;;;;;;;;;;;;23.13;36.06;95415.06;10307736;28;2289;-67
2023/06/18 23:22:57;;;;;;;;;;;;;;;23.11;36.27;95402.13;10300992;28;1967;-66
2023/06/18 23:27:57;;;;;;;;;;;;;;;23.12;36.40;95403.69;10304962;28;1979;-67
2023/06/18 23:32:58;;;;;;;;;;;;;;;23.12;36.29;95406.34;10302566;28;1937;-66
2023/06/18 23:37:58;;;;;;;;;;;;;;;23.12;36.52;95408.22;10304289;28;1893;-66
2023/06/18 23:42:59;;;;;;;;;;;;;;;23.10;36.31;95400.56;10301588;28;4621;-66
2023/06/18 23:47:59;;;;;;;;;;;;;;;23.10;36.65;95399.81;10308065;28;1914;-67
2023/06/18 23:52:59;;;;;;;;;;;;;;;23.08;36.55;95392.16;10302709;28;1980;-66
2023/06/18 23:58:01;;;;;;;;;;;;;;;23.09;36.50;95393.72;10306671;28;1921;-67
